Terminal Aerodrome Forecast
Issued by NWS Grand Junction, CO

Home | Current Version | Previous Version | Text Only | Print | Product List | Glossary On
Versions: 1 2 3 4 5 6 7 8 9 10 11 12 13 14 15 16 17 18 19 20 21 22 23 24 25 26 27 28 29 30 31 32 33 34 35
653
FTUS45 KGJT 201138
TAFGJT
TAF
KGJT 201138Z 2012/2112 16012KT P6SM BKN100
     FM201400 19011KT P6SM VCSH BKN070 BKN100
     FM201600 25007KT P6SM VCSH BKN070 BKN090
      TEMPO 2016/2020 -RA BKN060
     FM202000 32011KT P6SM VCSH BKN090 BKN100
     FM210300 31009KT 6SM -RA BKN045=

USA.gov is the U.S. government's official web portal to all federal, state and local government web resources and services.